Time;durP1;ratioP1;P1;durP2;ratioP2;P2;SDS_P1;SDS_P2;PMS_P1;PMS_P2;Temp;Humidity;BMP_temperature;BMP_pressure;BME280_temperature;BME280_humidity;BME280_pressure;Samples;Min_cycle;Max_cycle;Signal;HPM_P1;HPM_P2
2022/05/13 00:00:32;;;;;;;4.28;1.40;;;;;;;-145.50;100.00;65435.88;5059941;28;20044;-65
2022/05/13 00:02:59;;;;;;;5.57;1.40;;;;;;;-145.50;100.00;65435.88;5064864;28;20044;-62
2022/05/13 00:05:25;;;;;;;5.60;1.40;;;;;;;-145.50;100.00;65435.88;5073467;28;20172;-64
2022/05/13 00:07:52;;;;;;;4.85;1.33;;;;;;;-145.50;100.00;65435.88;5061683;28;20084;-64
2022/05/13 00:10:18;;;;;;;6.18;1.20;;;;;;;-145.50;100.00;65435.88;5057139;28;20059;-67
2022/05/13 00:12:45;;;;;;;4.30;1.15;;;;;;;-145.50;100.00;65435.88;5059328;28;20478;-64
2022/05/13 00:15:16;;;;;;;8.80;1.30;;;;;;;-145.50;100.00;65435.88;5051109;28;20528;-64
2022/05/13 00:17:43;;;;;;;6.68;1.27;;;;;;;-145.50;100.00;65435.88;5060385;28;20492;-62
2022/05/13 00:20:11;;;;;;;6.63;1.50;;;;;;;-145.50;100.00;65435.88;5066048;28;20487;-64
2022/05/13 00:22:43;;;;;;;3.22;1.27;;;;;;;-145.50;100.00;65435.88;5075208;28;20618;-63
2022/05/13 00:25:10;;;;;;;5.80;1.30;;;;;;;-145.50;100.00;65435.88;5071013;28;20052;-64
2022/05/13 00:27:37;;;;;;;5.40;1.83;;;;;;;-145.50;100.00;65435.88;5078615;28;20459;-65
2022/05/13 00:30:06;;;;;;;5.70;1.88;;;;;;;-145.50;100.00;65435.88;5079326;28;20177;-65
2022/05/13 00:32:33;;;;;;;7.90;1.45;;;;;;;-145.50;100.00;65435.88;5068450;28;20293;-65
2022/05/13 00:35:00;;;;;;;5.28;1.48;;;;;;;-145.50;100.00;65435.88;5071874;28;20044;-65
2022/05/13 00:37:27;;;;;;;7.28;1.52;;;;;;;-145.50;100.00;65435.88;5088031;28;20055;-64
2022/05/13 00:39:53;;;;;;;4.95;1.25;;;;;;;-145.50;100.00;65435.88;5099539;28;20317;-64
2022/05/13 00:42:22;;;;;;;4.63;1.20;;;;;;;-145.50;100.00;65435.88;5090702;28;20047;-63
2022/05/13 00:44:49;;;;;;;6.32;1.30;;;;;;;-145.50;100.00;65435.88;5102751;28;20567;-64
2022/05/13 00:47:15;;;;;;;7.20;1.50;;;;;;;-145.50;100.00;65435.88;5079998;28;20606;-64
2022/05/13 00:49:43;;;;;;;4.85;1.23;;;;;;;-145.50;100.00;65435.88;5069744;28;20059;-64
2022/05/13 00:52:10;;;;;;;5.57;1.50;;;;;;;-145.50;100.00;65435.88;5084188;28;20131;-65
2022/05/13 00:54:39;;;;;;;8.00;1.50;;;;;;;-145.50;100.00;65435.88;5075993;28;20511;-64
2022/05/13 00:57:06;;;;;;;4.07;1.20;;;;;;;-145.50;100.00;65435.88;5082188;28;20142;-65
2022/05/13 00:59:36;;;;;;;5.82;1.55;;;;;;;-145.50;100.00;65435.88;5075124;28;20636;-64
2022/05/13 01:02:03;;;;;;;5.47;1.60;;;;;;;-145.50;100.00;65435.88;5082872;28;20132;-64
2022/05/13 01:04:31;;;;;;;5.65;1.20;;;;;;;-145.50;100.00;65435.88;5097940;28;20070;-64
2022/05/13 01:07:03;;;;;;;4.50;1.40;;;;;;;-145.50;100.00;65435.88;5094124;28;20600;-64
2022/05/13 01:09:33;;;;;;;7.93;1.88;;;;;;;-145.50;100.00;65435.88;5100629;28;20466;-64
2022/05/13 01:12:07;;;;;;;6.65;1.48;;;;;;;-145.50;100.00;65435.88;5093719;28;20052;-64
2022/05/13 01:14:40;;;;;;;8.32;1.65;;;;;;;-145.50;100.00;65435.88;5100637;28;20289;-64
2022/05/13 01:20:08;;;;;;;5.05;1.23;;;;;;;-145.50;100.00;65435.88;5061005;28;20123;-64
2022/05/13 01:22:52;;;;;;;6.55;1.40;;;;;;;-145.50;100.00;65435.88;5067016;28;20051;-64
2022/05/13 01:25:24;;;;;;;7.03;1.35;;;;;;;-145.50;100.00;65435.88;5061874;28;20409;-64
2022/05/13 01:27:52;;;;;;;6.38;1.48;;;;;;;-145.50;100.00;65435.88;5061736;28;20620;-64
2022/05/13 01:30:26;;;;;;;4.60;1.38;;;;;;;-145.50;100.00;65435.88;5046898;28;20056;-64
2022/05/13 01:32:54;;;;;;;6.63;1.73;;;;;;;-145.50;100.00;65435.88;5072997;28;20078;-65
2022/05/13 01:35:21;;;;;;;6.93;2.10;;;;;;;-145.50;100.00;65435.88;5070311;28;20044;-64
2022/05/13 01:37:48;;;;;;;7.45;1.65;;;;;;;-145.50;100.00;65435.88;5080312;28;20556;-64
2022/05/13 01:40:15;;;;;;;3.85;1.60;;;;;;;-145.50;100.00;65435.88;5061303;28;20882;-64
2022/05/13 01:42:41;;;;;;;5.32;1.48;;;;;;;-145.50;100.00;65435.88;5069614;28;20125;-63
2022/05/13 01:45:10;;;;;;;10.30;3.05;;;;;;;-145.50;100.00;65435.88;5055986;28;20053;-64
2022/05/13 01:47:37;;;;;;;6.00;1.40;;;;;;;-145.50;100.00;65435.88;5062825;28;20136;-63
2022/05/13 01:50:05;;;;;;;4.78;1.50;;;;;;;-145.50;100.00;65435.88;5062083;28;20384;-63
2022/05/13 01:52:32;;;;;;;;;;;;;;;-145.50;100.00;65435.88;5057381;28;20055;-64
2022/05/13 01:54:58;;;;;;;8.27;1.70;;;;;;;-145.50;100.00;65435.88;5079589;28;19924;-64
2022/05/13 01:57:25;;;;;;;7.00;1.92;;;;;;;-145.50;100.00;65435.88;5053488;28;20087;-63
2022/05/13 01:59:51;;;;;;;7.95;1.70;;;;;;;-145.50;100.00;65435.88;5062663;28;20166;-63
2022/05/13 02:02:18;;;;;;;7.97;1.48;;;;;;;-145.50;100.00;65435.88;5079713;28;20166;-64
2022/05/13 02:04:45;;;;;;;3.05;1.20;;;;;;;-145.50;100.00;65435.88;5058062;28;20052;-64
2022/05/13 02:07:11;;;;;;;7.82;1.80;;;;;;;-145.50;100.00;65435.88;5061728;28;20056;-64
2022/05/13 02:09:37;;;;;;;7.97;2.08;;;;;;;-145.50;100.00;65435.88;5055181;28;20044;-64
2022/05/13 02:12:05;;;;;;;5.70;1.70;;;;;;;-145.50;100.00;65435.88;5069486;28;20070;-64
2022/05/13 02:14:31;;;;;;;8.50;1.70;;;;;;;-145.50;100.00;65435.88;5067736;28;20726;-63
2022/05/13 02:16:58;;;;;;;6.05;1.73;;;;;;;-145.50;100.00;65435.88;5074125;28;20052;-63
2022/05/13 02:19:24;;;;;;;14.35;2.28;;;;;;;-145.50;100.00;65435.88;5081690;28;20854;-64
2022/05/13 02:21:51;;;;;;;8.18;1.77;;;;;;;-145.50;100.00;65435.88;5072514;28;20055;-64
2022/05/13 02:24:17;;;;;;;9.18;1.77;;;;;;;-145.50;100.00;65435.88;5079772;28;20047;-63
2022/05/13 02:26:44;;;;;;;8.85;1.92;;;;;;;-145.50;100.00;65435.88;5065211;28;20382;-62
2022/05/13 02:29:10;;;;;;;8.10;2.08;;;;;;;-145.50;100.00;65435.88;5080465;28;20229;-63
2022/05/13 02:31:37;;;;;;;9.35;2.08;;;;;;;-145.50;100.00;65435.88;5075741;28;20161;-64
2022/05/13 02:34:03;;;;;;;4.80;1.70;;;;;;;-145.50;100.00;65435.88;5078065;28;20459;-64
2022/05/13 02:36:30;;;;;;;4.78;2.10;;;;;;;-145.50;100.00;65435.88;5080803;28;20146;-63
2022/05/13 02:38:57;;;;;;;7.55;2.00;;;;;;;-145.50;100.00;65435.88;5067921;28;20135;-63
2022/05/13 02:41:23;;;;;;;6.20;1.98;;;;;;;-145.50;100.00;65435.88;5075914;28;20124;-64
2022/05/13 02:43:53;;;;;;;12.52;2.00;;;;;;;-145.50;100.00;65435.88;5072095;28;20056;-63
2022/05/13 02:46:21;;;;;;;6.28;1.85;;;;;;;-145.50;100.00;65435.88;5080544;28;20664;-64
2022/05/13 02:48:48;;;;;;;8.43;2.25;;;;;;;-145.50;100.00;65435.88;5080948;28;20056;-63
2022/05/13 02:51:15;;;;;;;9.55;2.78;;;;;;;-145.50;100.00;65435.88;5072495;28;20078;-64
2022/05/13 02:53:42;;;;;;;9.32;2.15;;;;;;;-145.50;100.00;65435.88;5077928;28;20588;-63
2022/05/13 02:56:09;;;;;;;9.88;2.25;;;;;;;-145.50;100.00;65435.88;5067424;28;20521;-62
2022/05/13 02:58:36;;;;;;;8.32;2.30;;;;;;;-145.50;100.00;65435.88;5080134;28;20106;-63
2022/05/13 03:01:04;;;;;;;7.45;2.10;;;;;;;-145.50;100.00;65435.88;5071464;28;20522;-64
2022/05/13 03:03:32;;;;;;;9.82;2.60;;;;;;;-145.50;100.00;65435.88;5080426;28;20410;-64
2022/05/13 03:05:59;;;;;;;7.25;2.22;;;;;;;-145.50;100.00;65435.88;5080654;28;20047;-64
2022/05/13 03:08:26;;;;;;;7.25;2.30;;;;;;;-145.50;100.00;65435.88;5072874;28;20528;-63
2022/05/13 03:10:52;;;;;;;12.88;2.55;;;;;;;-145.50;100.00;65435.88;5092843;28;20071;-65
2022/05/13 03:13:19;;;;;;;10.60;2.53;;;;;;;-145.50;100.00;65435.88;5075068;28;20461;-63
2022/05/13 03:15:47;;;;;;;11.18;2.67;;;;;;;-145.50;100.00;65435.88;5071452;28;20905;-64
2022/05/13 03:18:14;;;;;;;12.17;2.73;;;;;;;-145.50;100.00;65435.88;5058333;28;20183;-63
2022/05/13 03:20:41;;;;;;;18.20;3.40;;;;;;;-145.50;100.00;65435.88;5065171;28;20063;-64
2022/05/13 03:23:08;;;;;;;14.52;3.17;;;;;;;-145.50;100.00;65435.88;5052670;28;20049;-64
2022/05/13 03:25:34;;;;;;;13.10;3.13;;;;;;;-145.50;100.00;65435.88;5051070;28;20048;-64
2022/05/13 03:28:01;;;;;;;14.07;3.15;;;;;;;-145.50;100.00;65435.88;5059618;28;20411;-65
2022/05/13 03:30:27;;;;;;;11.57;3.25;;;;;;;-145.50;100.00;65435.88;5050614;28;20369;-63
2022/05/13 03:32:55;;;;;;;10.32;3.35;;;;;;;-145.50;100.00;65435.88;5059617;28;20052;-64
2022/05/13 03:35:23;;;;;;;11.70;3.20;;;;;;;-145.50;100.00;65435.88;5054650;28;20052;-64
2022/05/13 03:37:49;;;;;;;14.18;4.25;;;;;;;-145.50;100.00;65435.88;5061715;28;20085;-64
2022/05/13 03:40:17;;;;;;;9.80;3.15;;;;;;;-145.50;100.00;65435.88;5072099;28;20167;-64
2022/05/13 03:42:45;;;;;;;14.55;3.60;;;;;;;-145.50;100.00;65435.88;5051477;28;20836;-63
2022/05/13 03:45:14;;;;;;;10.45;3.42;;;;;;;-145.50;100.00;65435.88;5059268;28;20048;-64
2022/05/13 03:47:40;;;;;;;10.48;3.00;;;;;;;-145.50;100.00;65435.88;5061152;28;20152;-64
2022/05/13 03:50:08;;;;;;;12.00;3.15;;;;;;;-145.50;100.00;65435.88;5058393;28;20056;-64
2022/05/13 03:52:35;;;;;;;13.75;3.50;;;;;;;-145.50;100.00;65435.88;5060247;28;20532;-64
2022/05/13 03:55:05;;;;;;;11.07;3.22;;;;;;;-145.50;100.00;65435.88;5067964;28;20052;-64
2022/05/13 03:57:32;;;;;;;13.43;4.30;;;;;;;-145.50;100.00;65435.88;5060634;28;20226;-65
2022/05/13 04:00:00;;;;;;;10.43;3.65;;;;;;;-145.50;100.00;65435.88;5052433;28;20057;-64
2022/05/13 04:02:28;;;;;;;8.85;3.40;;;;;;;-145.50;100.00;65435.88;5057825;28;20052;-64
2022/05/13 04:10:26;;;;;;;12.75;3.80;;;;;;;-145.50;100.00;65435.88;5051763;28;20096;-63
2022/05/13 04:18:22;;;;;;;15.10;4.43;;;;;;;-145.50;100.00;65435.88;5062109;28;20825;-63
2022/05/13 04:20:49;;;;;;;11.50;4.80;;;;;;;-145.50;100.00;65435.88;5062789;28;20627;-65
2022/05/13 04:23:18;;;;;;;15.05;5.53;;;;;;;-145.50;100.00;65435.88;5085236;28;20052;-64
2022/05/13 04:25:45;;;;;;;12.85;5.40;;;;;;;-145.50;100.00;65435.88;5085989;28;20618;-63
2022/05/13 04:28:12;;;;;;;12.73;5.57;;;;;;;-145.50;100.00;65435.88;5073835;28;20433;-63
2022/05/13 04:30:39;;;;;;;15.00;4.97;;;;;;;-145.50;100.00;65435.88;5076737;28;20146;-64
2022/05/13 04:33:05;;;;;;;17.77;5.60;;;;;;;-145.50;100.00;65435.88;5067219;28;20497;-63
2022/05/13 04:35:32;;;;;;;15.65;5.18;;;;;;;-145.50;100.00;65435.88;5085484;28;20052;-64
2022/05/13 04:37:58;;;;;;;18.08;5.25;;;;;;;-145.50;100.00;65435.88;5081161;28;20147;-63
2022/05/13 04:40:24;;;;;;;15.57;4.93;;;;;;;-145.50;100.00;65435.88;5083853;28;20482;-64
2022/05/13 04:42:51;;;;;;;17.58;5.88;;;;;;;-145.50;100.00;65435.88;5064750;28;20139;-63
2022/05/13 04:45:24;;;;;;;16.35;4.95;;;;;;;-145.50;100.00;65435.88;5072694;28;20556;-63
2022/05/13 04:50:38;;;;;;;15.45;5.80;;;;;;;-145.50;100.00;65435.88;5059144;28;20135;-65
2022/05/13 04:53:05;;;;;;;15.02;4.85;;;;;;;-145.50;100.00;65435.88;5068077;28;20055;-64
2022/05/13 04:55:32;;;;;;;15.38;4.95;;;;;;;-145.50;100.00;65435.88;5073955;28;20058;-64
2022/05/13 04:57:59;;;;;;;16.92;5.38;;;;;;;-145.50;100.00;65435.88;5078391;28;20077;-62
2022/05/13 05:00:26;;;;;;;15.02;5.20;;;;;;;-145.50;100.00;65435.88;5085035;28;20055;-64
2022/05/13 05:02:52;;;;;;;13.60;5.43;;;;;;;-145.50;100.00;65435.88;5077149;28;20056;-64
2022/05/13 05:05:19;;;;;;;11.82;5.50;;;;;;;-145.50;100.00;65435.88;5086022;28;20162;-64
2022/05/13 05:07:46;;;;;;;16.73;5.47;;;;;;;-145.50;100.00;65435.88;5076485;28;20052;-64
2022/05/13 05:10:13;;;;;;;16.48;5.05;;;;;;;-145.50;100.00;65435.88;5079391;28;20163;-64
2022/05/13 05:12:41;;;;;;;18.60;5.55;;;;;;;-145.50;100.00;65435.88;5063277;28;20139;-64
2022/05/13 05:15:08;;;;;;;9.20;5.15;;;;;;;-145.50;100.00;65435.88;5080520;28;20048;-64
2022/05/13 05:17:34;;;;;;;18.55;6.25;;;;;;;-145.50;100.00;65435.88;5065093;28;20477;-64
2022/05/13 05:20:01;;;;;;;15.57;5.65;;;;;;;-145.50;100.00;65435.88;5056463;28;20644;-64
2022/05/13 05:22:27;;;;;;;16.52;6.00;;;;;;;-145.50;100.00;65435.88;5064651;28;20424;-60
2022/05/13 05:24:54;;;;;;;19.50;5.93;;;;;;;-145.50;100.00;65435.88;5059954;28;20633;-63
2022/05/13 05:27:20;;;;;;;15.88;6.35;;;;;;;-145.50;100.00;65435.88;5064365;28;20198;-63
2022/05/13 05:29:47;;;;;;;19.55;5.97;;;;;;;-145.50;100.00;65435.88;5038829;28;20169;-63
2022/05/13 05:32:14;;;;;;;18.77;6.65;;;;;;;-145.50;100.00;65435.88;5064682;28;20080;-64
2022/05/13 05:34:41;;;;;;;19.48;6.55;;;;;;;-145.50;100.00;65435.88;5064039;28;20049;-64
2022/05/13 05:37:07;;;;;;;19.17;6.78;;;;;;;-145.50;100.00;65435.88;5060740;28;20790;-63
2022/05/13 05:39:34;;;;;;;15.70;5.90;;;;;;;-145.50;100.00;65435.88;5077580;28;20139;-63
2022/05/13 05:42:00;;;;;;;19.27;6.72;;;;;;;-145.50;100.00;65435.88;5072949;28;20139;-63
2022/05/13 05:44:27;;;;;;;23.98;5.88;;;;;;;-145.50;100.00;65435.88;5082228;28;20058;-63
2022/05/13 05:46:54;;;;;;;19.70;7.32;;;;;;;-145.50;100.00;65435.88;5073680;28;20433;-65
2022/05/13 05:49:20;;;;;;;14.10;6.57;;;;;;;-145.50;100.00;65435.88;5081643;28;20056;-64
2022/05/13 05:51:47;;;;;;;15.45;6.32;;;;;;;-145.50;100.00;65435.88;5076492;28;20052;-63
2022/05/13 05:57:13;;;;;;;21.17;6.95;;;;;;;-145.50;100.00;65435.88;5080464;28;20109;-64
2022/05/13 05:59:41;;;;;;;22.20;6.88;;;;;;;-145.50;100.00;65435.88;5055035;28;20056;-63
2022/05/13 06:02:08;;;;;;;17.00;7.45;;;;;;;-145.50;100.00;65435.88;5074337;28;20130;-64
2022/05/13 06:04:36;;;;;;;23.92;7.60;;;;;;;-145.50;100.00;65435.88;5065391;28;20491;-63
2022/05/13 06:07:05;;;;;;;24.58;7.03;;;;;;;-145.50;100.00;65435.88;5060911;28;20098;-64
2022/05/13 06:09:32;;;;;;;16.13;7.00;;;;;;;-145.50;100.00;65435.88;5071684;28;20134;-64
2022/05/13 06:11:58;;;;;;;19.73;7.00;;;;;;;-145.50;100.00;65435.88;5071465;28;20138;-64
2022/05/13 06:14:26;;;;;;;25.35;8.10;;;;;;;-145.50;100.00;65435.88;5081341;28;20044;-65
2022/05/13 06:16:53;;;;;;;20.77;7.32;;;;;;;-145.50;100.00;65435.88;5073017;28;20074;-64
2022/05/13 06:19:20;;;;;;;22.73;7.68;;;;;;;-145.50;100.00;65435.88;5076695;28;20403;-65
2022/05/13 06:21:47;;;;;;;17.13;7.57;;;;;;;-145.50;100.00;65435.88;5055053;28;20483;-64
2022/05/13 06:24:13;;;;;;;21.13;8.35;;;;;;;-145.50;100.00;65435.88;5071072;28;20424;-63
2022/05/13 06:26:40;;;;;;;26.65;7.28;;;;;;;-145.50;100.00;65435.88;5064690;28;20052;-65
2022/05/13 06:29:07;;;;;;;17.92;6.25;;;;;;;-145.50;100.00;65435.88;5054123;28;20660;-64
2022/05/13 06:31:34;;;;;;;22.17;7.40;;;;;;;-145.50;100.00;65435.88;5067107;28;20054;-65
2022/05/13 06:34:01;;;;;;;18.73;8.10;;;;;;;-145.50;100.00;65435.88;5053164;28;20072;-66
2022/05/13 06:36:27;;;;;;;19.45;7.10;;;;;;;-145.50;100.00;65435.88;5084479;28;20072;-64
2022/05/13 06:38:56;;;;;;;19.73;8.30;;;;;;;-145.50;100.00;65435.88;5088309;28;20113;-64
2022/05/13 06:41:24;;;;;;;17.00;8.02;;;;;;;-145.50;100.00;65435.88;5080152;28;20091;-64
2022/05/13 06:43:51;;;;;;;22.38;7.85;;;;;;;-145.50;100.00;65435.88;5079803;28;20044;-65
2022/05/13 06:46:18;;;;;;;20.42;8.05;;;;;;;-145.50;100.00;65435.88;5075423;28;20315;-64
2022/05/13 06:48:46;;;;;;;22.02;8.95;;;;;;;-145.50;100.00;65435.88;5073772;28;20535;-65
2022/05/13 06:51:12;;;;;;;22.92;8.18;;;;;;;-145.50;100.00;65435.88;5068821;28;20421;-64
2022/05/13 06:53:39;;;;;;;22.20;8.68;;;;;;;-145.50;100.00;65435.88;5074196;28;20087;-65
2022/05/13 06:56:05;;;;;;;25.95;8.25;;;;;;;-145.50;100.00;65435.88;5072350;28;20480;-65
2022/05/13 06:58:32;;;;;;;21.90;8.80;;;;;;;-145.50;100.00;65435.88;5080111;28;20549;-64
2022/05/13 07:00:58;;;;;;;17.33;8.30;;;;;;;-145.50;100.00;65435.88;5078113;28;20151;-63
2022/05/13 07:03:25;;;;;;;26.25;8.82;;;;;;;-145.50;100.00;65435.88;5065752;28;20056;-64
2022/05/13 07:05:51;;;;;;;22.63;8.63;;;;;;;-145.50;100.00;65435.88;5079647;28;20151;-64
2022/05/13 07:08:18;;;;;;;23.15;8.52;;;;;;;-145.50;100.00;65435.88;5071610;28;20059;-65
2022/05/13 07:10:45;;;;;;;23.20;9.00;;;;;;;-145.50;100.00;65435.88;5079202;28;20566;-64
2022/05/13 07:13:14;;;;;;;22.80;8.70;;;;;;;-145.50;100.00;65435.88;5072424;28;20574;-64
2022/05/13 07:15:42;;;;;;;23.40;9.02;;;;;;;-145.50;100.00;65435.88;5076020;28;20139;-64
2022/05/13 07:18:10;;;;;;;24.55;8.82;;;;;;;-145.50;100.00;65435.88;5078099;28;20144;-64
2022/05/13 07:20:36;;;;;;;28.17;9.50;;;;;;;-145.50;100.00;65435.88;5071286;28;20477;-64
2022/05/13 07:23:03;;;;;;;22.95;9.80;;;;;;;-145.50;100.00;65435.88;5080663;28;20052;-64
2022/05/13 07:25:31;;;;;;;19.08;9.50;;;;;;;-145.50;100.00;65435.88;5069869;28;20040;-64
2022/05/13 07:27:58;;;;;;;22.40;9.95;;;;;;;-145.50;100.00;65435.88;5072173;28;20136;-63
2022/05/13 07:30:25;;;;;;;24.08;10.18;;;;;;;-145.50;100.00;65435.88;5064639;28;20750;-64
2022/05/13 07:32:52;;;;;;;22.35;9.57;;;;;;;-145.50;100.00;65435.88;5079225;28;20048;-64
2022/05/13 07:35:19;;;;;;;17.23;8.23;;;;;;;-145.50;100.00;65435.88;5079209;28;20540;-65
2022/05/13 07:37:45;;;;;;;27.70;10.55;;;;;;;-145.50;100.00;65435.88;5082518;28;20052;-64
2022/05/13 07:42:58;;;;;;;23.58;9.50;;;;;;;-145.50;100.00;65435.88;5086990;28;20116;-64
2022/05/13 07:45:25;;;;;;;24.60;9.60;;;;;;;-145.50;100.00;65435.88;5095736;28;20043;-62
2022/05/13 07:47:52;;;;;;;20.02;8.95;;;;;;;-145.50;100.00;65435.88;5073153;28;20054;-64
2022/05/13 07:50:18;;;;;;;16.95;8.48;;;;;;;-145.50;100.00;65435.88;5079684;28;20055;-64
2022/05/13 07:52:45;;;;;;;24.25;9.73;;;;;;;-145.50;100.00;65435.88;5078779;28;20052;-64
2022/05/13 07:55:15;;;;;;;19.00;10.00;;;;;;;-145.50;100.00;65435.88;5072032;28;20066;-64
2022/05/13 07:57:44;;;;;;;19.20;9.27;;;;;;;-145.50;100.00;65435.88;5076112;28;20063;-65
2022/05/13 08:00:29;;;;;;;25.48;10.23;;;;;;;-145.50;100.00;65435.88;5050578;28;20388;-63
2022/05/13 08:03:08;;;;;;;23.83;9.02;;;;;;;-145.50;100.00;65435.88;5079301;28;20109;-64
2022/05/13 08:05:38;;;;;;;;;;;;;;;-145.50;100.00;65435.88;5071091;28;20067;-64
2022/05/13 08:08:15;;;;;;;18.65;8.88;;;;;;;-145.50;100.00;65435.88;5078914;28;19928;-65
2022/05/13 08:10:47;;;;;;;18.63;7.68;;;;;;;-145.50;100.00;65435.88;5065081;28;20157;-64
2022/05/13 08:13:15;;;;;;;19.92;7.18;;;;;;;-145.50;100.00;65435.88;5076437;28;20052;-65
2022/05/13 08:15:41;;;;;;;21.38;6.88;;;;;;;-145.50;100.00;65435.88;5095111;28;20548;-64
2022/05/13 08:18:08;;;;;;;16.00;7.20;;;;;;;-145.50;100.00;65435.88;5072520;28;20149;-64
2022/05/13 08:20:40;;;;;;;20.35;8.15;;;;;;;-145.50;100.00;65435.88;5079298;28;20574;-66
2022/05/13 08:23:08;;;;;;;17.17;7.53;;;;;;;-145.50;100.00;65435.88;5070237;28;20059;-64
2022/05/13 08:25:35;;;;;;;20.25;7.05;;;;;;;-145.50;100.00;65435.88;5072716;28;20096;-64
2022/05/13 08:28:04;;;;;;;22.02;6.07;;;;;;;-145.50;100.00;65435.88;5057050;28;20159;-65
2022/05/13 08:30:31;;;;;;;16.83;5.97;;;;;;;-145.50;100.00;65435.88;5066736;28;20477;-65
2022/05/13 08:32:57;;;;;;;15.98;6.20;;;;;;;-145.50;100.00;65435.88;5075880;28;20133;-64
2022/05/13 08:35:24;;;;;;;16.10;6.03;;;;;;;-145.50;100.00;65435.88;5060490;28;20048;-64
2022/05/13 08:37:52;;;;;;;19.55;6.68;;;;;;;-145.50;100.00;65435.88;5074163;28;20155;-64
2022/05/13 08:40:26;;;;;;;16.77;6.55;;;;;;;-145.50;100.00;65435.88;5063606;28;20142;-65
2022/05/13 08:42:53;;;;;;;15.52;5.93;;;;;;;-145.50;100.00;65435.88;5058047;28;20143;-64
2022/05/13 08:45:21;;;;;;;13.88;6.50;;;;;;;-145.50;100.00;65435.88;5050741;28;20094;-64
2022/05/13 08:47:57;;;;;;;15.60;6.10;;;;;;;-145.50;100.00;65435.88;5075406;28;20578;-65
2022/05/13 08:50:48;;;;;;;16.25;6.15;;;;;;;-145.50;100.00;65435.88;5078677;28;20415;-64
2022/05/13 08:53:21;;;;;;;14.70;5.82;;;;;;;-145.50;100.00;65435.88;5035807;28;20052;-64
2022/05/13 08:55:49;;;;;;;12.68;5.20;;;;;;;-145.50;100.00;65435.88;5056677;28;20084;-65
2022/05/13 08:58:25;;;;;;;9.98;4.07;;;;;;;-145.50;100.00;65435.88;5050672;28;20155;-65
2022/05/13 09:00:57;;;;;;;12.15;3.65;;;;;;;-145.50;100.00;65435.88;5058336;28;20573;-64
2022/05/13 09:03:30;;;;;;;12.98;3.03;;;;;;;-145.50;100.00;65435.88;5050659;28;20374;-65
2022/05/13 09:06:21;;;;;;;8.40;3.30;;;;;;;-145.50;100.00;65435.88;5075694;28;20044;-65
2022/05/13 09:08:47;;;;;;;11.00;2.42;;;;;;;-145.50;100.00;65435.88;5058642;28;20722;-65
2022/05/13 09:11:33;;;;;;;7.03;1.80;;;;;;;-145.50;100.00;65435.88;5063950;28;20111;-66
2022/05/13 09:14:43;;;;;;;5.93;1.90;;;;;;;-145.50;100.00;65435.88;5055698;28;20084;-63
2022/05/13 09:17:10;;;;;;;9.57;2.20;;;;;;;-145.50;100.00;65435.88;5058845;28;20549;-65
2022/05/13 09:19:38;;;;;;;6.97;2.10;;;;;;;-145.50;100.00;65435.88;5058299;28;20130;-65
2022/05/13 09:22:11;;;;;;;7.80;2.35;;;;;;;-145.50;100.00;65435.88;5069555;28;20102;-65
2022/05/13 09:24:38;;;;;;;6.70;1.83;;;;;;;-145.50;100.00;65435.88;5063234;28;20139;-65
2022/05/13 09:27:24;;;;;;;8.27;1.88;;;;;;;-145.50;100.00;65435.88;5069701;28;20111;-65
2022/05/13 09:29:51;;;;;;;6.90;1.85;;;;;;;-145.50;100.00;65435.88;5064203;28;20116;-64
2022/05/13 09:32:29;;;;;;;6.70;1.75;;;;;;;-145.50;100.00;65435.88;5047638;28;20151;-63
2022/05/13 09:35:05;;;;;;;5.57;1.73;;;;;;;-145.50;100.00;65435.88;5064121;28;20209;-64
2022/05/13 09:37:40;;;;;;;10.38;2.10;;;;;;;-145.50;100.00;65435.88;5059136;28;20678;-65
2022/05/13 09:40:21;;;;;;;6.60;1.50;;;;;;;-145.50;100.00;65435.88;5061862;28;20209;-65
2022/05/13 09:42:50;;;;;;;8.35;1.95;;;;;;;-145.50;100.00;65435.88;5063783;28;20167;-67
2022/05/13 09:45:33;;;;;;;5.22;1.65;;;;;;;-145.50;100.00;65435.88;5054908;28;20049;-64
2022/05/13 09:48:06;;;;;;;7.07;1.85;;;;;;;-145.50;100.00;65435.88;5060204;28;20139;-65
2022/05/13 09:50:41;;;;;;;5.45;2.00;;;;;;;-145.50;100.00;65435.88;5073763;28;20063;-63
2022/05/13 09:53:20;;;;;;;7.68;2.30;;;;;;;-145.50;100.00;65435.88;5065939;28;20111;-64
2022/05/13 09:55:48;;;;;;;6.70;1.80;;;;;;;-145.50;100.00;65435.88;5054358;28;20498;-64
2022/05/13 09:58:27;;;;;;;11.45;2.20;;;;;;;-145.50;100.00;65435.88;5056896;28;21127;-64
2022/05/13 10:01:11;;;;;;;4.88;1.40;;;;;;;-145.50;100.00;65435.88;5048555;28;20131;-64
2022/05/13 10:03:39;;;;;;;4.80;1.48;;;;;;;-145.50;100.00;65435.88;5061407;28;20459;-64
2022/05/13 10:06:09;;;;;;;;;;;;;;;-145.50;100.00;65435.88;5064615;28;20048;-63
2022/05/13 10:14:40;;;;;;;9.25;2.08;;;;;;;-145.50;100.00;65435.88;5056327;28;20396;-63
2022/05/13 10:17:17;;;;;;;8.77;2.20;;;;;;;-145.50;100.00;65435.88;5051324;28;20569;-64
2022/05/13 10:19:58;;;;;;;8.68;2.30;;;;;;;-145.50;100.00;65435.88;5061823;28;20198;-64
2022/05/13 10:22:46;;;;;;;8.50;2.60;;;;;;;-145.50;100.00;65435.88;5055338;28;20048;-64
2022/05/13 10:25:24;;;;;;;4.90;2.20;;;;;;;-145.50;100.00;65435.88;5060249;28;20463;-63
2022/05/13 10:28:10;;;;;;;9.45;2.22;;;;;;;-145.50;100.00;65435.88;5062228;28;20471;-64
2022/05/13 10:30:43;;;;;;;6.13;2.30;;;;;;;-145.50;100.00;65435.88;5076951;28;20131;-64
2022/05/13 10:33:24;;;;;;;10.57;2.42;;;;;;;-145.50;100.00;65435.88;5080458;28;20131;-63
2022/05/13 10:36:01;;;;;;;10.40;2.28;;;;;;;-145.50;100.00;65435.88;5072060;28;20047;-63
2022/05/13 10:38:31;;;;;;;6.65;2.20;;;;;;;-145.50;100.00;65435.88;5081389;28;20179;-63
2022/05/13 10:41:14;;;;;;;11.32;2.35;;;;;;;-145.50;100.00;65435.88;5071123;28;20142;-64
2022/05/13 10:43:49;;;;;;;6.93;1.80;;;;;;;-145.50;100.00;65435.88;5081444;28;20060;-64
2022/05/13 10:46:23;;;;;;;6.45;1.80;;;;;;;-145.50;100.00;65435.88;5073071;28;20130;-65
2022/05/13 10:48:52;;;;;;;17.17;2.35;;;;;;;-145.50;100.00;65435.88;5080505;28;20055;-65
2022/05/13 10:51:30;;;;;;;10.75;1.40;;;;;;;-145.50;100.00;65435.88;5068209;28;20134;-65
2022/05/13 10:54:10;;;;;;;7.50;1.92;;;;;;;-145.50;100.00;65435.88;5069683;28;20773;-62
2022/05/13 10:57:19;;;;;;;6.05;1.52;;;;;;;-145.50;100.00;65435.88;5080142;28;20051;-62
2022/05/13 11:00:06;;;;;;;6.97;1.50;;;;;;;-145.50;100.00;65435.88;5060888;28;20066;-62
2022/05/13 11:02:49;;;;;;;7.57;1.92;;;;;;;-145.50;100.00;65435.88;5060424;28;20056;-64
2022/05/13 11:05:34;;;;;;;5.65;1.55;;;;;;;-145.50;100.00;65435.88;5063016;28;20054;-64
2022/05/13 11:08:04;;;;;;;7.57;1.40;;;;;;;-145.50;100.00;65435.88;5061587;28;20138;-64
2022/05/13 11:11:12;;;;;;;5.90;1.30;;;;;;;-145.50;100.00;65435.88;5058581;28;20052;-64
2022/05/13 11:14:04;;;;;;;7.85;1.42;;;;;;;-145.50;100.00;65435.88;5036166;28;20291;-64
2022/05/13 11:16:51;;;;;;;8.15;1.55;;;;;;;-145.50;100.00;65435.88;5074114;28;20543;-64
2022/05/13 11:19:43;;;;;;;6.07;1.30;;;;;;;-145.50;100.00;65435.88;5076582;28;20786;-64
2022/05/13 11:22:31;;;;;;;5.78;1.20;;;;;;;-145.50;100.00;65435.88;5067508;28;20729;-64
2022/05/13 11:28:19;;;;;;;5.88;1.45;;;;;;;-145.50;100.00;65435.88;5052521;28;20056;-64
2022/05/13 11:31:17;;;;;;;8.27;1.60;;;;;;;-145.50;100.00;65435.88;5063868;28;20142;-65
2022/05/13 11:33:57;;;;;;;4.95;1.10;;;;;;;-145.50;100.00;65435.88;5026572;28;20052;-64
2022/05/13 11:36:45;;;;;;;3.90;1.10;;;;;;;-145.50;100.00;65435.88;5069928;28;20321;-64
2022/05/13 11:39:48;;;;;;;4.25;1.50;;;;;;;-145.50;100.00;65435.88;5051630;28;20051;-64
2022/05/13 11:42:30;;;;;;;5.50;1.52;;;;;;;-145.50;100.00;65435.88;5069482;28;20074;-63
2022/05/13 11:44:59;;;;;;;4.47;1.23;;;;;;;-145.50;100.00;65435.88;5070328;28;20087;-66
2022/05/13 11:47:57;;;;;;;9.68;1.60;;;;;;;-145.50;100.00;65435.88;5073103;28;20056;-67
2022/05/13 11:50:27;;;;;;;6.22;1.38;;;;;;;-145.50;100.00;65435.88;5069042;28;20060;-66
2022/05/13 11:52:55;;;;;;;5.78;1.30;;;;;;;-145.50;100.00;65435.88;5071791;28;20056;-63